createdAt,value
2023-01-22T00:00:04.661Z,99458.25
2023-01-22T00:02:39.298Z,99459.91
2023-01-22T00:05:06.468Z,99468.41
2023-01-22T00:07:33.219Z,99474.31
2023-01-22T00:10:02.570Z,99463.34
2023-01-22T00:12:29.343Z,99461.63
2023-01-22T00:14:56.139Z,99468.41
2023-01-22T00:17:23.099Z,99468.41
2023-01-22T00:19:49.812Z,99476.03
2023-01-22T00:22:16.645Z,99471.00
2023-01-22T00:24:43.714Z,99468.41
2023-01-22T00:27:10.664Z,99471.81
2023-01-22T00:29:37.423Z,99464.19
2023-01-22T00:32:04.399Z,99478.56
2023-01-22T00:34:31.205Z,99481.97
2023-01-22T00:36:58.112Z,99485.34
2023-01-22T00:39:24.951Z,99483.69
2023-01-22T00:41:52.080Z,99474.34
2023-01-22T00:44:18.867Z,99479.44
2023-01-22T00:46:45.722Z,99474.34
2023-01-22T00:49:12.612Z,99480.28
2023-01-22T00:51:39.760Z,99489.59
2023-01-22T00:54:06.901Z,99475.19
2023-01-22T00:56:33.899Z,99468.41
2023-01-22T00:59:01.196Z,99465.03
2023-01-22T01:01:28.008Z,99464.19
2023-01-22T01:03:54.744Z,99480.28
2023-01-22T01:06:21.657Z,99478.56
2023-01-22T01:08:48.705Z,99482.81
2023-01-22T01:11:16.490Z,99486.22
2023-01-22T01:13:43.375Z,99487.09
2023-01-22T01:16:17.625Z,99488.75
2023-01-22T01:18:45.103Z,99483.69
2023-01-22T01:21:12.299Z,99490.47
2023-01-22T01:23:39.148Z,99485.41
2023-01-22T01:26:06.723Z,99481.16
2023-01-22T01:28:34.814Z,99479.47
2023-01-22T01:31:02.319Z,99478.59
2023-01-22T01:33:29.184Z,99470.13
2023-01-22T01:36:00.140Z,99471.00
2023-01-22T01:38:29.519Z,99480.28
2023-01-22T01:40:56.247Z,99476.94
2023-01-22T01:43:23.024Z,99469.28
2023-01-22T01:45:49.870Z,99478.59
2023-01-22T01:48:23.496Z,99482.00
2023-01-22T01:50:55.746Z,99476.94
2023-01-22T01:53:22.540Z,99472.69
2023-01-22T01:55:49.368Z,99477.78
2023-01-22T01:58:21.622Z,99469.38
2023-01-22T02:00:50.390Z,99477.78
2023-01-22T02:03:17.340Z,99478.66
2023-01-22T02:05:44.195Z,99471.91
2023-01-22T02:08:11.678Z,99482.91
2023-01-22T02:10:38.590Z,99469.38
2023-01-22T02:13:07.802Z,99473.63
2023-01-22T02:15:34.767Z,99464.34
2023-01-22T02:18:01.509Z,99466.00
2023-01-22T02:20:28.273Z,99463.47
2023-01-22T02:22:55.062Z,99459.22
2023-01-22T02:25:22.048Z,99457.53
2023-01-22T02:27:48.889Z,99465.22
2023-01-22T02:30:16.655Z,99462.66
2023-01-22T02:32:43.680Z,99449.09
2023-01-22T02:35:16.966Z,99450.81
2023-01-22T02:37:46.474Z,99459.31
2023-01-22T02:40:13.450Z,99461.84
2023-01-22T02:42:42.194Z,99447.44
2023-01-22T02:45:09.226Z,99451.69
2023-01-22T02:47:36.565Z,99443.19
2023-01-22T02:50:05.438Z,99453.41
2023-01-22T02:52:32.195Z,99451.69
2023-01-22T02:54:58.948Z,99451.69
2023-01-22T02:57:26.294Z,99452.56
2023-01-22T02:59:53.057Z,99450.88
2023-01-22T03:02:20.111Z,99450.03
2023-01-22T03:04:50.314Z,99454.28
2023-01-22T03:07:17.551Z,99450.88
2023-01-22T03:09:45.826Z,99448.31
2023-01-22T03:12:12.787Z,99443.25
2023-01-22T03:14:59.038Z,99437.34
2023-01-22T03:17:44.567Z,99442.44
2023-01-22T03:20:30.079Z,99439.03
2023-01-22T03:22:56.970Z,99438.16
2023-01-22T03:25:23.742Z,99439.03
2023-01-22T03:28:09.282Z,99439.03
2023-01-22T03:30:38.727Z,99431.47
2023-01-22T03:33:07.489Z,99431.44
2023-01-22T03:35:34.189Z,99433.13
2023-01-22T03:38:12.206Z,99434.88
2023-01-22T03:40:39.804Z,99437.41
2023-01-22T03:43:06.937Z,99431.47
2023-01-22T03:45:34.317Z,99433.19
2023-01-22T03:48:02.426Z,99435.72
2023-01-22T03:50:34.934Z,99432.34
2023-01-22T03:53:04.223Z,99430.66
2023-01-22T03:55:32.197Z,99428.09
2023-01-22T03:57:59.037Z,99429.03
2023-01-22T04:00:25.883Z,99428.09
2023-01-22T04:02:53.861Z,99423.06
2023-01-22T04:05:25.205Z,99430.69
2023-01-22T04:07:52.107Z,99432.38
2023-01-22T04:10:23.534Z,99424.78
2023-01-22T04:12:50.331Z,99429.03
2023-01-22T04:15:20.148Z,99434.13
2023-01-22T04:17:47.948Z,99434.13
2023-01-22T04:20:31.044Z,99434.09
2023-01-22T04:23:06.151Z,99430.72
2023-01-22T04:25:34.336Z,99435.81
2023-01-22T04:28:01.135Z,99440.88
2023-01-22T04:30:28.048Z,99432.47
2023-01-22T04:33:04.763Z,99426.53
2023-01-22T04:35:43.372Z,99422.28
2023-01-22T04:38:12.037Z,99427.41
2023-01-22T04:40:38.811Z,99429.88
2023-01-22T04:43:06.380Z,99427.34
2023-01-22T04:45:33.263Z,99432.44
2023-01-22T04:48:00.193Z,99423.94
2023-01-22T04:50:28.003Z,99433.28
2023-01-22T04:52:55.521Z,99435.81
2023-01-22T04:55:22.514Z,99440.88
2023-01-22T04:58:15.399Z,99440.88
2023-01-22T05:00:42.272Z,99448.50
2023-01-22T05:03:10.314Z,99446.84
2023-01-22T05:05:37.028Z,99450.25
2023-01-22T05:08:03.971Z,99454.44
2023-01-22T05:10:33.050Z,99451.91
2023-01-22T05:13:02.444Z,99456.16
2023-01-22T05:15:29.544Z,99457.84
2023-01-22T05:18:00.296Z,99453.56
2023-01-22T05:20:27.700Z,99464.59
2023-01-22T05:22:54.542Z,99466.28
2023-01-22T05:25:24.384Z,99468.00
2023-01-22T05:27:51.143Z,99468.84
2023-01-22T05:30:51.006Z,99473.09
2023-01-22T05:33:35.488Z,99479.00
2023-01-22T05:36:03.535Z,99481.53
2023-01-22T05:38:31.343Z,99480.72
2023-01-22T05:40:58.384Z,99483.25
2023-01-22T05:43:26.950Z,99476.44
2023-01-22T05:46:02.788Z,99470.56
2023-01-22T05:48:44.457Z,99478.16
2023-01-22T05:51:14.965Z,99485.78
2023-01-22T05:53:42.334Z,99493.44
2023-01-22T05:56:09.788Z,99501.00
2023-01-22T05:58:38.738Z,99500.19
2023-01-22T06:01:06.372Z,99491.69
2023-01-22T06:03:40.100Z,99486.63
2023-01-22T06:06:08.156Z,99487.50
2023-01-22T06:08:35.132Z,99480.72
2023-01-22T06:11:08.900Z,99485.78
2023-01-22T06:13:35.740Z,99482.38
2023-01-22T06:16:10.861Z,99489.16
2023-01-22T06:18:55.973Z,99494.22
2023-01-22T06:21:26.106Z,99489.16
2023-01-22T06:23:54.098Z,99479.00
2023-01-22T06:26:21.062Z,99489.16
2023-01-22T06:28:47.919Z,99489.16
2023-01-22T06:31:14.885Z,99493.41
2023-01-22T06:33:48.201Z,99500.19
2023-01-22T06:36:18.401Z,99506.13
2023-01-22T06:38:45.466Z,99499.31
2023-01-22T06:41:18.867Z,99512.06
2023-01-22T06:43:48.049Z,99512.88
2023-01-22T06:46:15.178Z,99515.41
2023-01-22T06:49:01.736Z,99518.81
2023-01-22T06:51:29.529Z,99520.50
2023-01-22T06:53:56.328Z,99530.66
2023-01-22T06:56:23.625Z,99527.28
2023-01-22T06:58:54.117Z,99521.38
2023-01-22T07:01:21.075Z,99535.72
2023-01-22T07:03:47.909Z,99536.59
2023-01-22T07:06:18.009Z,99532.38
2023-01-22T07:08:44.953Z,99542.50
2023-01-22T07:11:12.021Z,99539.97
2023-01-22T07:13:38.760Z,99536.59
2023-01-22T07:16:06.021Z,99545.06
2023-01-22T07:18:32.860Z,99550.13
2023-01-22T07:21:03.195Z,99555.22
2023-01-22T07:23:30.267Z,99561.16
2023-01-22T07:25:57.207Z,99564.56
2023-01-22T07:28:24.036Z,99567.09
2023-01-22T07:30:51.022Z,99559.50
2023-01-22T07:33:22.618Z,99564.63
2023-01-22T07:36:18.241Z,99573.94
2023-01-22T07:38:46.822Z,99573.94
2023-01-22T07:41:25.595Z,99572.22
2023-01-22T07:43:53.700Z,99576.47
2023-01-22T07:46:20.593Z,99575.66
2023-01-22T07:48:47.403Z,99576.47
2023-01-22T07:51:14.296Z,99577.31
2023-01-22T07:53:42.982Z,99568.88
2023-01-22T07:56:09.784Z,99580.72
2023-01-22T07:58:36.497Z,99586.69
2023-01-22T08:01:07.261Z,99588.44
2023-01-22T08:03:34.207Z,99580.81
2023-01-22T08:06:01.062Z,99575.75
2023-01-22T08:08:27.914Z,99582.56
2023-01-22T08:10:58.041Z,99575.78
2023-01-22T08:13:24.888Z,99579.22
2023-01-22T08:15:51.765Z,99573.28
2023-01-22T08:18:22.822Z,99584.34
2023-01-22T08:20:49.884Z,99588.63
2023-01-22T08:23:16.679Z,99590.31
2023-01-22T08:25:43.483Z,99595.41
2023-01-22T08:28:10.352Z,99597.13
2023-01-22T08:30:46.081Z,99597.94
2023-01-22T08:33:16.040Z,99597.13
2023-01-22T08:35:42.988Z,99597.13
2023-01-22T08:38:09.894Z,99596.28
2023-01-22T08:40:38.091Z,99614.09
2023-01-22T08:43:05.017Z,99612.41
2023-01-22T08:45:33.333Z,99623.47
2023-01-22T08:48:00.482Z,99628.56
2023-01-22T08:50:27.975Z,99627.78
2023-01-22T08:52:56.171Z,99625.19
2023-01-22T08:55:23.083Z,99631.16
2023-01-22T08:57:56.365Z,99637.88
2023-01-22T09:00:23.280Z,99626.06
2023-01-22T09:02:50.090Z,99629.47
2023-01-22T09:05:16.892Z,99633.72
2023-01-22T09:07:43.704Z,99637.94
2023-01-22T09:10:13.037Z,99648.09
2023-01-22T09:12:40.247Z,99650.72
2023-01-22T09:15:07.545Z,99661.72
2023-01-22T09:17:34.372Z,99651.56
2023-01-22T09:20:06.641Z,99660.91
2023-01-22T09:22:33.500Z,99647.34
2023-01-22T09:25:00.378Z,99654.13
2023-01-22T09:27:27.244Z,99662.63
2023-01-22T09:29:54.118Z,99666.03
2023-01-22T09:32:20.986Z,99655.88
2023-01-22T09:34:47.759Z,99660.97
2023-01-22T09:37:15.542Z,99666.88
2023-01-22T09:39:42.326Z,99669.47
2023-01-22T09:42:10.608Z,99670.34
2023-01-22T09:44:38.427Z,99666.09
2023-01-22T09:47:07.152Z,99674.59
2023-01-22T09:49:49.534Z,99662.78
2023-01-22T09:52:16.590Z,99668.72
2023-01-22T09:55:12.278Z,99674.66
2023-01-22T10:01:49.646Z,99672.16
2023-01-22T10:04:27.460Z,99665.34
2023-01-22T10:06:55.357Z,99671.31
2023-01-22T10:09:40.775Z,99669.63
2023-01-22T10:12:13.946Z,99673.84
2023-01-22T10:14:41.339Z,99681.53
2023-01-22T10:17:19.259Z,99678.16
2023-01-22T10:19:47.095Z,99679.81
2023-01-22T10:22:15.969Z,99685.78
2023-01-22T10:24:45.159Z,99686.66
2023-01-22T10:27:12.963Z,99687.50
2023-01-22T10:29:39.887Z,99680.75
2023-01-22T10:32:17.249Z,99694.31
2023-01-22T10:34:44.139Z,99690.94
2023-01-22T10:37:15.266Z,99694.38
2023-01-22T10:39:42.868Z,99691.00
2023-01-22T10:42:19.502Z,99691.88
2023-01-22T10:44:46.584Z,99689.34
2023-01-22T10:47:21.016Z,99692.78
2023-01-22T10:49:48.464Z,99691.09
2023-01-22T10:52:19.219Z,99692.84
2023-01-22T10:54:47.159Z,99691.13
2023-01-22T10:57:21.457Z,99692.84
2023-01-22T10:59:52.437Z,99690.38
2023-01-22T11:02:22.060Z,99682.81
2023-01-22T11:04:48.945Z,99693.03
2023-01-22T11:07:26.913Z,99703.22
2023-01-22T11:10:13.017Z,99699.00
2023-01-22T11:12:41.585Z,99694.84
2023-01-22T11:15:17.497Z,99688.88
2023-01-22T11:17:45.469Z,99692.34
2023-01-22T11:20:23.219Z,99690.66
2023-01-22T11:23:13.692Z,99691.50
2023-01-22T11:25:54.082Z,99693.31
2023-01-22T11:28:28.445Z,99695.88
2023-01-22T11:31:01.732Z,99684.91
2023-01-22T11:33:50.207Z,99685.78
2023-01-22T11:36:19.810Z,99684.97
2023-01-22T11:38:53.931Z,99685.84
2023-01-22T11:41:20.675Z,99692.66
2023-01-22T11:43:55.860Z,99685.91
2023-01-22T11:46:43.051Z,99690.16
2023-01-22T11:49:13.744Z,99689.38
2023-01-22T11:51:59.124Z,99691.06
2023-01-22T11:54:33.100Z,99696.22
2023-01-22T11:56:59.886Z,99692.84
2023-01-22T11:59:26.635Z,99698.84
2023-01-22T12:02:02.790Z,99711.53
2023-01-22T12:04:48.420Z,99704.78
2023-01-22T12:07:25.380Z,99703.13
2023-01-22T12:10:07.510Z,99711.59
2023-01-22T12:12:41.679Z,99719.22
2023-01-22T12:15:26.985Z,99713.34
2023-01-22T12:18:22.906Z,99709.06
2023-01-22T12:20:52.923Z,99715.88
2023-01-22T12:23:22.736Z,99713.34
2023-01-22T12:26:05.184Z,99718.41
2023-01-22T12:28:51.697Z,99715.88
2023-01-22T12:31:27.181Z,99712.47
2023-01-22T12:33:56.643Z,99726.06
2023-01-22T12:36:25.831Z,99716.72
2023-01-22T12:39:11.691Z,99727.75
2023-01-22T12:42:09.984Z,99724.34
2023-01-22T12:44:46.835Z,99726.09
2023-01-22T12:47:21.497Z,99737.09
2023-01-22T12:49:49.274Z,99742.22
2023-01-22T12:52:33.524Z,99741.38
2023-01-22T12:55:05.612Z,99743.09
2023-01-22T12:57:38.064Z,99749.84
2023-01-22T13:00:27.665Z,99755.81
2023-01-22T13:03:33.449Z,99752.41
2023-01-22T13:06:04.969Z,99751.56
2023-01-22T13:08:37.099Z,99754.94
2023-01-22T13:11:36.932Z,99753.28
2023-01-22T13:14:23.240Z,99749.84
2023-01-22T13:16:59.585Z,99757.47
2023-01-22T13:19:33.051Z,99762.63
2023-01-22T13:28:25.786Z,99765.25
2023-01-22T13:31:03.430Z,99768.63
2023-01-22T13:33:30.404Z,99778.00
2023-01-22T13:35:57.919Z,99776.28
2023-01-22T13:38:25.882Z,99779.75
2023-01-22T13:40:59.632Z,99789.16
2023-01-22T13:47:28.613Z,99778.19
2023-01-22T13:49:56.501Z,99795.97
2023-01-22T13:52:23.314Z,99795.97
2023-01-22T13:55:00.585Z,99803.59
2023-01-22T13:57:27.642Z,99807.88
2023-01-22T13:59:55.346Z,99804.50
2023-01-22T14:02:34.847Z,99802.78
2023-01-22T14:05:06.224Z,99804.44
2023-01-22T14:07:35.493Z,99802.78
2023-01-22T14:10:13.407Z,99807.03
2023-01-22T14:12:41.429Z,99806.19
2023-01-22T14:15:22.736Z,99813.81
2023-01-22T14:18:03.290Z,99806.19
2023-01-22T14:20:38.105Z,99816.38
2023-01-22T14:23:07.762Z,99826.59
2023-01-22T14:25:40.250Z,99826.59
2023-01-22T14:28:07.469Z,99832.50
2023-01-22T14:30:38.928Z,99834.25
2023-01-22T14:33:06.117Z,99838.47
2023-01-22T14:35:40.293Z,99832.56
2023-01-22T14:40:57.419Z,99829.16
2023-01-22T14:43:29.749Z,99846.19
2023-01-22T14:46:24.903Z,99851.28
2023-01-22T14:48:57.197Z,99858.91
2023-01-22T14:51:28.355Z,99854.66
2023-01-22T14:54:10.491Z,99867.34
2023-01-22T14:59:38.334Z,99870.78
2023-01-22T15:02:05.365Z,99874.16
2023-01-22T15:14:00.505Z,99880.97
2023-01-22T15:19:53.899Z,99891.13
2023-01-22T15:22:48.188Z,99889.47
2023-01-22T15:25:31.907Z,99893.69
2023-01-22T15:32:29.212Z,99892.88
2023-01-22T15:35:11.370Z,99894.50
2023-01-22T15:37:56.144Z,99891.91
